THY1TP LTBS-LTFM
Flight info
| Callsign | THY1TP |
|---|---|
| Flight time | 0h 57m |
| Altitude | 37000 |
| Route | RIVBU DCT BAGLU DCT ATGIT UT58 KFK/N0456F360 UM855 SISPI |
| Aircraft | A320/M-SDE3FGHIRWY/LB1 |
Departure
| Time | 2026-05-05 21:27 |
|---|---|
| Airport | Dalaman International Airport (LTBS) |
Arrival
| Time | 2026-05-05 22:25 |
|---|---|
| Airport | İstanbul Airport (LTFM) |
| Time | Latitude | Longitude | Altitude | Speed | Heading |
|---|---|---|---|---|---|
| 2026-05-05 21:00 | 36.71705 | 28.78848 | 13 ft | 0 kts | 285° |
| 2026-05-05 21:16 | 36.71699 | 28.78877 | 13 ft | 4 kts | 281° |
| 2026-05-05 21:17 | 36.71696 | 28.78910 | 16 ft | 4 kts | 268° |
| 2026-05-05 21:17 | 36.71701 | 28.78941 | 15 ft | 4 kts | 229° |
| 2026-05-05 21:17 | 36.71710 | 28.78950 | 14 ft | 0 kts | 197° |
| 2026-05-05 21:20 | 36.71709 | 28.78950 | 14 ft | 1 kts | 197° |
| 2026-05-05 21:20 | 36.71696 | 28.78945 | 16 ft | 3 kts | 197° |
| 2026-05-05 21:21 | 36.71667 | 28.78934 | 14 ft | 5 kts | 197° |
| 2026-05-05 21:21 | 36.71623 | 28.78918 | 12 ft | 8 kts | 195° |
| 2026-05-05 21:21 | 36.71565 | 28.78898 | 12 ft | 10 kts | 194° |
| 2026-05-05 21:21 | 36.71492 | 28.78874 | 12 ft | 12 kts | 195° |
| 2026-05-05 21:22 | 36.71404 | 28.78843 | 13 ft | 14 kts | 195° |
| 2026-05-05 21:22 | 36.71348 | 28.78873 | 13 ft | 11 kts | 106° |
| 2026-05-05 21:22 | 36.71332 | 28.78974 | 13 ft | 13 kts | 100° |
| 2026-05-05 21:22 | 36.71276 | 28.79024 | 13 ft | 13 kts | 192° |
| 2026-05-05 21:23 | 36.71184 | 28.78994 | 13 ft | 15 kts | 196° |
| 2026-05-05 21:23 | 36.71078 | 28.78956 | 13 ft | 17 kts | 196° |
| 2026-05-05 21:23 | 36.70955 | 28.78915 | 13 ft | 20 kts | 195° |
| 2026-05-05 21:23 | 36.70815 | 28.78868 | 13 ft | 22 kts | 195° |
| 2026-05-05 21:24 | 36.70659 | 28.78816 | 13 ft | 24 kts | 195° |
| 2026-05-05 21:24 | 36.70489 | 28.78759 | 13 ft | 24 kts | 195° |
| 2026-05-05 21:24 | 36.70338 | 28.78706 | 15 ft | 22 kts | 195° |
| 2026-05-05 21:24 | 36.70200 | 28.78660 | 13 ft | 20 kts | 195° |
| 2026-05-05 21:25 | 36.70116 | 28.78632 | 13 ft | 11 kts | 185° |
| 2026-05-05 21:25 | 36.70056 | 28.78694 | 13 ft | 13 kts | 107° |
| 2026-05-05 21:25 | 36.70043 | 28.78797 | 13 ft | 8 kts | 85° |
| 2026-05-05 21:25 | 36.70073 | 28.78829 | 13 ft | 0 kts | 15° |
| 2026-05-05 21:26 | 36.70074 | 28.78829 | 13 ft | 0 kts | 15° |
| 2026-05-05 21:26 | 36.70250 | 28.78888 | 13 ft | 62 kts | 15° |
| 2026-05-05 21:26 | 36.70869 | 28.79098 | 13 ft | 120 kts | 15° |
| 2026-05-05 21:27 | 36.71826 | 28.79420 | 51 ft | 160 kts | 15° |
| 2026-05-05 21:27 | 36.72866 | 28.79825 | 714 ft | 155 kts | 21° |
| 2026-05-05 21:27 | 36.73813 | 28.80459 | 1388 ft | 154 kts | 31° |
| 2026-05-05 21:27 | 36.74724 | 28.81151 | 2006 ft | 156 kts | 27° |
| 2026-05-05 21:28 | 36.75716 | 28.81859 | 2364 ft | 172 kts | 28° |
| 2026-05-05 21:28 | 36.76809 | 28.82652 | 2692 ft | 192 kts | 28° |
| 2026-05-05 21:28 | 36.78049 | 28.83554 | 2970 ft | 220 kts | 28° |
| 2026-05-05 21:28 | 36.79448 | 28.84577 | 3399 ft | 244 kts | 29° |
| 2026-05-05 21:29 | 36.80949 | 28.85679 | 4156 ft | 254 kts | 29° |
| 2026-05-05 21:29 | 36.82466 | 28.86794 | 5136 ft | 255 kts | 29° |
| 2026-05-05 21:29 | 36.84010 | 28.87930 | 5973 ft | 261 kts | 29° |
| 2026-05-05 21:29 | 36.85643 | 28.88957 | 6816 ft | 264 kts | 19° |
| 2026-05-05 21:30 | 36.87383 | 28.89757 | 7659 ft | 268 kts | 18° |
| 2026-05-05 21:30 | 36.89159 | 28.90518 | 8545 ft | 271 kts | 17° |
| 2026-05-05 21:30 | 36.90946 | 28.91298 | 9439 ft | 273 kts | 17° |
| 2026-05-05 21:30 | 36.92754 | 28.92111 | 10209 ft | 278 kts | 17° |
| 2026-05-05 21:31 | 36.94630 | 28.92963 | 10538 ft | 299 kts | 18° |
| 2026-05-05 21:31 | 36.96633 | 28.93876 | 10717 ft | 322 kts | 18° |
| 2026-05-05 21:31 | 36.98833 | 28.94885 | 10963 ft | 340 kts | 18° |
| 2026-05-05 21:31 | 37.01023 | 28.95954 | 11053 ft | 345 kts | 23° |
| 2026-05-05 21:32 | 37.03101 | 28.97518 | 11196 ft | 355 kts | 35° |
| 2026-05-05 21:32 | 37.05052 | 28.99417 | 11913 ft | 356 kts | 35° |
| 2026-05-05 21:32 | 37.07029 | 29.01308 | 12640 ft | 359 kts | 34° |
| 2026-05-05 21:32 | 37.09031 | 29.03207 | 13348 ft | 363 kts | 34° |
| 2026-05-05 21:33 | 37.11052 | 29.05120 | 14023 ft | 366 kts | 33° |
| 2026-05-05 21:33 | 37.13089 | 29.07050 | 14610 ft | 369 kts | 33° |
| 2026-05-05 21:33 | 37.15124 | 29.09033 | 15180 ft | 374 kts | 37° |
| 2026-05-05 21:33 | 37.16999 | 29.11323 | 15748 ft | 378 kts | 41° |
| 2026-05-05 21:34 | 37.18861 | 29.13674 | 16313 ft | 381 kts | 41° |
| 2026-05-05 21:34 | 37.20736 | 29.16044 | 16905 ft | 384 kts | 41° |
| 2026-05-05 21:34 | 37.22624 | 29.18433 | 17472 ft | 387 kts | 41° |
| 2026-05-05 21:34 | 37.24526 | 29.20842 | 18041 ft | 391 kts | 41° |
| 2026-05-05 21:35 | 37.26448 | 29.23277 | 18589 ft | 394 kts | 41° |
| 2026-05-05 21:35 | 37.28385 | 29.25731 | 19118 ft | 398 kts | 41° |
| 2026-05-05 21:35 | 37.30486 | 29.27981 | 19587 ft | 397 kts | 31° |
| 2026-05-05 21:35 | 37.32881 | 29.29705 | 20087 ft | 396 kts | 20° |
| 2026-05-05 21:36 | 37.35471 | 29.30830 | 20554 ft | 394 kts | 10° |
| 2026-05-05 21:36 | 37.38179 | 29.31340 | 21029 ft | 394 kts | 0° |
| 2026-05-05 21:36 | 37.40923 | 29.31401 | 21491 ft | 396 kts | 358° |
| 2026-05-05 21:36 | 37.43685 | 29.31440 | 21934 ft | 399 kts | 358° |
| 2026-05-05 21:37 | 37.46469 | 29.31483 | 22388 ft | 402 kts | 358° |
| 2026-05-05 21:37 | 37.49276 | 29.31528 | 22837 ft | 404 kts | 358° |
| 2026-05-05 21:37 | 37.52099 | 29.31575 | 23297 ft | 407 kts | 358° |
| 2026-05-05 21:37 | 37.54942 | 29.31626 | 23720 ft | 410 kts | 358° |
| 2026-05-05 21:38 | 37.57798 | 29.31678 | 24076 ft | 412 kts | 358° |
| 2026-05-05 21:38 | 37.60674 | 29.31729 | 24435 ft | 414 kts | 358° |
| 2026-05-05 21:38 | 37.63527 | 29.31777 | 24792 ft | 416 kts | 358° |
| 2026-05-05 21:38 | 37.66465 | 29.31825 | 25150 ft | 418 kts | 358° |
| 2026-05-05 21:39 | 37.69383 | 29.31875 | 25511 ft | 420 kts | 358° |
| 2026-05-05 21:39 | 37.72274 | 29.31925 | 25872 ft | 422 kts | 358° |
| 2026-05-05 21:39 | 37.75213 | 29.31975 | 26249 ft | 423 kts | 358° |
| 2026-05-05 21:39 | 37.78169 | 29.32024 | 26627 ft | 425 kts | 358° |
| 2026-05-05 21:40 | 37.81134 | 29.32074 | 26987 ft | 427 kts | 358° |
| 2026-05-05 21:40 | 37.84119 | 29.32125 | 27340 ft | 430 kts | 358° |
| 2026-05-05 21:40 | 37.87117 | 29.32180 | 27692 ft | 431 kts | 358° |
| 2026-05-05 21:40 | 37.90116 | 29.32234 | 28190 ft | 430 kts | 358° |
| 2026-05-05 21:41 | 37.93103 | 29.32286 | 28740 ft | 428 kts | 358° |
| 2026-05-05 21:41 | 37.96082 | 29.32336 | 29247 ft | 427 kts | 358° |
| 2026-05-05 21:41 | 37.99052 | 29.32405 | 29756 ft | 427 kts | 0° |
| 2026-05-05 21:41 | 38.01990 | 29.33052 | 30243 ft | 432 kts | 13° |
| 2026-05-05 21:42 | 38.04763 | 29.34575 | 30669 ft | 438 kts | 26° |
| 2026-05-05 21:42 | 38.07211 | 29.36926 | 31081 ft | 446 kts | 40° |
| 2026-05-05 21:42 | 38.09182 | 29.39995 | 31482 ft | 454 kts | 54° |
| 2026-05-05 21:42 | 38.10568 | 29.43624 | 31907 ft | 460 kts | 64° |
| 2026-05-05 21:43 | 38.11739 | 29.47397 | 32353 ft | 459 kts | 64° |
| 2026-05-05 21:43 | 38.12898 | 29.51165 | 32780 ft | 458 kts | 64° |
| 2026-05-05 21:43 | 38.14053 | 29.54938 | 33190 ft | 458 kts | 65° |
| 2026-05-05 21:43 | 38.15206 | 29.58710 | 33575 ft | 459 kts | 65° |
| 2026-05-05 21:44 | 38.16362 | 29.62491 | 33978 ft | 459 kts | 65° |
| 2026-05-05 21:44 | 38.17519 | 29.66266 | 34303 ft | 460 kts | 65° |
| 2026-05-05 21:44 | 38.20074 | 29.73670 | 34304 ft | 454 kts | 55° |
| 2026-05-05 21:45 | 38.23926 | 29.79818 | 34795 ft | 444 kts | 41° |
| 2026-05-05 21:45 | 38.26081 | 29.82626 | 35156 ft | 443 kts | 41° |
| 2026-05-05 21:45 | 38.28239 | 29.85453 | 35207 ft | 445 kts | 42° |
| 2026-05-05 21:46 | 38.32550 | 29.91127 | 35207 ft | 446 kts | 42° |
| 2026-05-05 21:46 | 38.36867 | 29.96811 | 35478 ft | 446 kts | 42° |
| 2026-05-05 21:47 | 38.39025 | 29.99652 | 35874 ft | 445 kts | 42° |
| 2026-05-05 21:47 | 38.41177 | 30.02489 | 36204 ft | 444 kts | 42° |
| 2026-05-05 21:47 | 38.43327 | 30.05324 | 36498 ft | 445 kts | 42° |
| 2026-05-05 21:47 | 38.45476 | 30.08162 | 36778 ft | 445 kts | 42° |
| 2026-05-05 21:48 | 38.47628 | 30.11010 | 37015 ft | 446 kts | 43° |
| 2026-05-05 21:48 | 38.49791 | 30.13873 | 37085 ft | 451 kts | 42° |
| 2026-05-05 21:48 | 38.54172 | 30.19677 | 37092 ft | 454 kts | 43° |
| 2026-05-05 21:49 | 38.58526 | 30.25464 | 37092 ft | 455 kts | 43° |
| 2026-05-05 21:49 | 38.62914 | 30.31297 | 37094 ft | 455 kts | 43° |
| 2026-05-05 21:50 | 38.67304 | 30.37126 | 37096 ft | 455 kts | 43° |
| 2026-05-05 21:50 | 38.71687 | 30.42970 | 37098 ft | 456 kts | 43° |
| 2026-05-05 21:51 | 38.76405 | 30.48291 | 37021 ft | 449 kts | 26° |
| 2026-05-05 21:51 | 38.79233 | 30.49886 | 36759 ft | 442 kts | 13° |
| 2026-05-05 21:51 | 38.82232 | 30.50597 | 36519 ft | 437 kts | 1° |
| 2026-05-05 21:52 | 38.88167 | 30.49568 | 36067 ft | 431 kts | 338° |
| 2026-05-05 21:52 | 38.90886 | 30.47968 | 36090 ft | 431 kts | 333° |
| 2026-05-05 21:53 | 38.96262 | 30.44543 | 36095 ft | 432 kts | 333° |
| 2026-05-05 21:53 | 39.01650 | 30.41104 | 36097 ft | 432 kts | 333° |
| 2026-05-05 21:54 | 39.06988 | 30.37678 | 36110 ft | 431 kts | 333° |
| 2026-05-05 21:54 | 39.12345 | 30.34222 | 36105 ft | 431 kts | 333° |
| 2026-05-05 21:55 | 39.17709 | 30.30767 | 36115 ft | 431 kts | 333° |
| 2026-05-05 21:55 | 39.23077 | 30.27310 | 36122 ft | 431 kts | 333° |
| 2026-05-05 21:56 | 39.28442 | 30.23851 | 36133 ft | 431 kts | 333° |
| 2026-05-05 21:56 | 39.33804 | 30.20381 | 36135 ft | 431 kts | 333° |
| 2026-05-05 21:57 | 39.39152 | 30.16901 | 36139 ft | 430 kts | 333° |
| 2026-05-05 21:57 | 39.44497 | 30.13420 | 36138 ft | 430 kts | 333° |
| 2026-05-05 21:58 | 39.49896 | 30.10090 | 36127 ft | 430 kts | 336° |
| 2026-05-05 21:58 | 39.55407 | 30.07093 | 36080 ft | 429 kts | 338° |
| 2026-05-05 21:58 | 39.58168 | 30.05629 | 35825 ft | 428 kts | 338° |
| 2026-05-05 21:59 | 39.60914 | 30.04154 | 35584 ft | 427 kts | 337° |
| 2026-05-05 21:59 | 39.62732 | 30.03161 | 35396 ft | 427 kts | 337° |
| 2026-05-05 21:59 | 39.65473 | 30.01642 | 34667 ft | 430 kts | 337° |
| 2026-05-05 21:59 | 39.69134 | 29.99584 | 33508 ft | 436 kts | 337° |
| 2026-05-05 22:00 | 39.71917 | 29.98011 | 32676 ft | 437 kts | 337° |
| 2026-05-05 22:00 | 39.74717 | 29.96428 | 31776 ft | 440 kts | 337° |
| 2026-05-05 22:00 | 39.77538 | 29.94845 | 30874 ft | 443 kts | 337° |
| 2026-05-05 22:00 | 39.80384 | 29.93253 | 29808 ft | 448 kts | 337° |
| 2026-05-05 22:01 | 39.83262 | 29.91639 | 28667 ft | 452 kts | 337° |
| 2026-05-05 22:01 | 39.85216 | 29.90539 | 28059 ft | 452 kts | 337° |
| 2026-05-05 22:01 | 39.88014 | 29.88958 | 27852 ft | 437 kts | 337° |
| 2026-05-05 22:01 | 39.90815 | 29.87651 | 27710 ft | 419 kts | 346° |
| 2026-05-05 22:02 | 39.93643 | 29.87033 | 27460 ft | 407 kts | 356° |
| 2026-05-05 22:02 | 39.96445 | 29.86981 | 27202 ft | 401 kts | 0° |
| 2026-05-05 22:02 | 39.99222 | 29.86992 | 26944 ft | 397 kts | 360° |
| 2026-05-05 22:02 | 40.01975 | 29.86980 | 26732 ft | 395 kts | 357° |
| 2026-05-05 22:03 | 40.04669 | 29.86372 | 26483 ft | 393 kts | 341° |
| 2026-05-05 22:03 | 40.07098 | 29.84760 | 26232 ft | 394 kts | 326° |
| 2026-05-05 22:03 | 40.09297 | 29.82627 | 25950 ft | 393 kts | 324° |
| 2026-05-05 22:03 | 40.11485 | 29.80478 | 25702 ft | 393 kts | 324° |
| 2026-05-05 22:04 | 40.13664 | 29.78324 | 25454 ft | 392 kts | 324° |
| 2026-05-05 22:04 | 40.15836 | 29.76169 | 25211 ft | 391 kts | 324° |
| 2026-05-05 22:04 | 40.17999 | 29.74030 | 24970 ft | 390 kts | 324° |
| 2026-05-05 22:04 | 40.20164 | 29.71896 | 24730 ft | 388 kts | 324° |
| 2026-05-05 22:05 | 40.22321 | 29.69774 | 24459 ft | 386 kts | 324° |
| 2026-05-05 22:05 | 40.24471 | 29.67656 | 23818 ft | 388 kts | 324° |
| 2026-05-05 22:05 | 40.26622 | 29.65532 | 23333 ft | 384 kts | 324° |
| 2026-05-05 22:05 | 40.28734 | 29.63438 | 22573 ft | 378 kts | 324° |
| 2026-05-05 22:06 | 40.30832 | 29.61358 | 21815 ft | 378 kts | 324° |
| 2026-05-05 22:06 | 40.32905 | 29.59304 | 21293 ft | 368 kts | 324° |
| 2026-05-05 22:06 | 40.34932 | 29.57291 | 20456 ft | 362 kts | 324° |
| 2026-05-05 22:06 | 40.36890 | 29.55348 | 19851 ft | 357 kts | 324° |
| 2026-05-05 22:07 | 40.38875 | 29.53380 | 19219 ft | 359 kts | 324° |
| 2026-05-05 22:07 | 40.40869 | 29.51404 | 18615 ft | 360 kts | 324° |
| 2026-05-05 22:07 | 40.42853 | 29.49438 | 18097 ft | 356 kts | 324° |
| 2026-05-05 22:07 | 40.44831 | 29.47476 | 17587 ft | 353 kts | 324° |
| 2026-05-05 22:08 | 40.46761 | 29.45560 | 16846 ft | 344 kts | 324° |
| 2026-05-05 22:08 | 40.48641 | 29.43687 | 16295 ft | 336 kts | 324° |
| 2026-05-05 22:08 | 40.50501 | 29.41831 | 15770 ft | 335 kts | 324° |
| 2026-05-05 22:08 | 40.52353 | 29.39985 | 15253 ft | 334 kts | 324° |
| 2026-05-05 22:09 | 40.54198 | 29.38140 | 14738 ft | 333 kts | 324° |
| 2026-05-05 22:09 | 40.56039 | 29.36301 | 14211 ft | 332 kts | 324° |
| 2026-05-05 22:09 | 40.57878 | 29.34460 | 13655 ft | 332 kts | 324° |
| 2026-05-05 22:09 | 40.59711 | 29.32628 | 13177 ft | 329 kts | 324° |
| 2026-05-05 22:10 | 40.61531 | 29.30805 | 12644 ft | 327 kts | 324° |
| 2026-05-05 22:10 | 40.63338 | 29.28991 | 12043 ft | 328 kts | 324° |
| 2026-05-05 22:10 | 40.65128 | 29.27197 | 11601 ft | 318 kts | 324° |
| 2026-05-05 22:10 | 40.66880 | 29.25433 | 10794 ft | 315 kts | 324° |
| 2026-05-05 22:11 | 40.68630 | 29.23679 | 10315 ft | 314 kts | 325° |
| 2026-05-05 22:11 | 40.70310 | 29.21996 | 10200 ft | 301 kts | 325° |
| 2026-05-05 22:11 | 40.71931 | 29.20365 | 10038 ft | 284 kts | 325° |
| 2026-05-05 22:11 | 40.73478 | 29.18804 | 9762 ft | 276 kts | 325° |
| 2026-05-05 22:12 | 40.74989 | 29.17278 | 9631 ft | 272 kts | 325° |
| 2026-05-05 22:12 | 40.76496 | 29.15759 | 9237 ft | 273 kts | 325° |
| 2026-05-05 22:12 | 40.78004 | 29.14241 | 8778 ft | 271 kts | 325° |
| 2026-05-05 22:12 | 40.79489 | 29.12743 | 8311 ft | 267 kts | 324° |
| 2026-05-05 22:13 | 40.80972 | 29.11247 | 7851 ft | 268 kts | 324° |
| 2026-05-05 22:13 | 40.82450 | 29.09753 | 7388 ft | 267 kts | 324° |
| 2026-05-05 22:13 | 40.83918 | 29.08267 | 6933 ft | 265 kts | 324° |
| 2026-05-05 22:13 | 40.85376 | 29.06788 | 6476 ft | 264 kts | 324° |
| 2026-05-05 22:14 | 40.86828 | 29.05317 | 6026 ft | 261 kts | 324° |
| 2026-05-05 22:14 | 40.88221 | 29.03906 | 5889 ft | 243 kts | 324° |
| 2026-05-05 22:14 | 40.89520 | 29.02588 | 5633 ft | 230 kts | 324° |
| 2026-05-05 22:14 | 40.90602 | 29.01081 | 5460 ft | 228 kts | 306° |
| 2026-05-05 22:15 | 40.91265 | 28.99161 | 5328 ft | 232 kts | 287° |
| 2026-05-05 22:15 | 40.91494 | 28.97039 | 5150 ft | 234 kts | 279° |
| 2026-05-05 22:15 | 40.91675 | 28.94907 | 4864 ft | 233 kts | 281° |
| 2026-05-05 22:15 | 40.91858 | 28.92784 | 4540 ft | 232 kts | 281° |
| 2026-05-05 22:16 | 40.92044 | 28.90663 | 4220 ft | 232 kts | 281° |
| 2026-05-05 22:16 | 40.92229 | 28.88554 | 4022 ft | 230 kts | 280° |
| 2026-05-05 22:16 | 40.92413 | 28.86454 | 4008 ft | 231 kts | 280° |
| 2026-05-05 22:16 | 40.92597 | 28.84345 | 4009 ft | 231 kts | 280° |
| 2026-05-05 22:17 | 40.92787 | 28.82234 | 4009 ft | 231 kts | 283° |
| 2026-05-05 22:17 | 40.93298 | 28.80264 | 4009 ft | 225 kts | 303° |
| 2026-05-05 22:17 | 40.94259 | 28.78708 | 4007 ft | 212 kts | 323° |
| 2026-05-05 22:17 | 40.95481 | 28.77654 | 4009 ft | 209 kts | 332° |
| 2026-05-05 22:18 | 40.96742 | 28.76689 | 4012 ft | 209 kts | 335° |
| 2026-05-05 22:18 | 40.98124 | 28.76199 | 4009 ft | 207 kts | 358° |
| 2026-05-05 22:18 | 40.99530 | 28.76168 | 4009 ft | 195 kts | 360° |
| 2026-05-05 22:18 | 41.00874 | 28.76147 | 4009 ft | 192 kts | 359° |
| 2026-05-05 22:19 | 41.02208 | 28.76123 | 4009 ft | 191 kts | 359° |
| 2026-05-05 22:19 | 41.03540 | 28.76099 | 4010 ft | 191 kts | 359° |
| 2026-05-05 22:19 | 41.04872 | 28.76074 | 4010 ft | 191 kts | 359° |
| 2026-05-05 22:19 | 41.06205 | 28.76049 | 4010 ft | 192 kts | 359° |
| 2026-05-05 22:20 | 41.07522 | 28.76024 | 3942 ft | 192 kts | 359° |
| 2026-05-05 22:20 | 41.08856 | 28.75999 | 3739 ft | 191 kts | 359° |
| 2026-05-05 22:20 | 41.10180 | 28.75974 | 3499 ft | 189 kts | 359° |
| 2026-05-05 22:20 | 41.11477 | 28.75949 | 3269 ft | 183 kts | 359° |
| 2026-05-05 22:21 | 41.12733 | 28.75925 | 3007 ft | 179 kts | 359° |
| 2026-05-05 22:21 | 41.13967 | 28.75902 | 2774 ft | 175 kts | 359° |
| 2026-05-05 22:21 | 41.15138 | 28.75880 | 2542 ft | 164 kts | 359° |
| 2026-05-05 22:21 | 41.16248 | 28.75859 | 2330 ft | 151 kts | 359° |
| 2026-05-05 22:22 | 41.17259 | 28.75840 | 2125 ft | 141 kts | 359° |
| 2026-05-05 22:22 | 41.18228 | 28.75821 | 1928 ft | 138 kts | 359° |
| 2026-05-05 22:22 | 41.19186 | 28.75803 | 1746 ft | 137 kts | 359° |
| 2026-05-05 22:22 | 41.20139 | 28.75785 | 1551 ft | 137 kts | 359° |
| 2026-05-05 22:23 | 41.21092 | 28.75767 | 1374 ft | 137 kts | 359° |
| 2026-05-05 22:23 | 41.22046 | 28.75755 | 1183 ft | 137 kts | 359° |
| 2026-05-05 22:23 | 41.22987 | 28.75737 | 1026 ft | 137 kts | 359° |
| 2026-05-05 22:23 | 41.23950 | 28.75716 | 870 ft | 137 kts | 359° |
| 2026-05-05 22:24 | 41.24899 | 28.75678 | 681 ft | 136 kts | 359° |
| 2026-05-05 22:24 | 41.25833 | 28.75656 | 468 ft | 135 kts | 0° |
| 2026-05-05 22:24 | 41.26771 | 28.75644 | 337 ft | 131 kts | 1° |
| 2026-05-05 22:24 | 41.27535 | 28.75643 | 333 ft | 87 kts | 359° |
| 2026-05-05 22:25 | 41.27919 | 28.75633 | 332 ft | 27 kts | 354° |
| 2026-05-05 22:25 | 41.28046 | 28.75573 | 333 ft | 0 kts | 332° |
| 2026-05-05 22:25 | 41.28056 | 28.75565 | 331 ft | 3 kts | 330° |
| 2026-05-05 22:25 | 41.28083 | 28.75544 | 331 ft | 6 kts | 329° |
| 2026-05-05 22:26 | 41.28126 | 28.75509 | 331 ft | 9 kts | 327° |
| 2026-05-05 22:26 | 41.28166 | 28.75437 | 333 ft | 11 kts | 279° |
| 2026-05-05 22:26 | 41.28134 | 28.75354 | 334 ft | 12 kts | 205° |
| 2026-05-05 22:26 | 41.28044 | 28.75349 | 334 ft | 15 kts | 179° |
| 2026-05-05 22:27 | 41.27932 | 28.75351 | 333 ft | 18 kts | 177° |
| 2026-05-05 22:27 | 41.27801 | 28.75357 | 332 ft | 20 kts | 179° |
| 2026-05-05 22:27 | 41.27656 | 28.75360 | 332 ft | 20 kts | 179° |
| 2026-05-05 22:27 | 41.27521 | 28.75363 | 331 ft | 20 kts | 179° |
| 2026-05-05 22:28 | 41.27389 | 28.75365 | 334 ft | 17 kts | 180° |
| 2026-05-05 22:28 | 41.27263 | 28.75368 | 334 ft | 19 kts | 179° |
| 2026-05-05 22:28 | 41.27145 | 28.75370 | 333 ft | 12 kts | 179° |
| 2026-05-05 22:28 | 41.27079 | 28.75346 | 334 ft | 10 kts | 233° |
| 2026-05-05 22:29 | 41.27069 | 28.75268 | 334 ft | 6 kts | 268° |
| 2026-05-05 22:29 | 41.27068 | 28.75202 | 334 ft | 8 kts | 268° |
| 2026-05-05 22:29 | 41.27024 | 28.75149 | 332 ft | 11 kts | 187° |
| 2026-05-05 22:29 | 41.26941 | 28.75150 | 330 ft | 13 kts | 179° |
| 2026-05-05 22:30 | 41.26838 | 28.75152 | 331 ft | 16 kts | 179° |
| 2026-05-05 22:30 | 41.26718 | 28.75156 | 332 ft | 18 kts | 178° |
| 2026-05-05 22:30 | 41.26588 | 28.75128 | 329 ft | 17 kts | 197° |
| 2026-05-05 22:30 | 41.26477 | 28.75083 | 332 ft | 18 kts | 197° |
| 2026-05-05 22:31 | 41.26349 | 28.75032 | 330 ft | 20 kts | 197° |
| 2026-05-05 22:31 | 41.26236 | 28.74993 | 330 ft | 15 kts | 184° |
| 2026-05-05 22:31 | 41.26136 | 28.75018 | 330 ft | 12 kts | 161° |
| 2026-05-05 22:31 | 41.26051 | 28.75058 | 330 ft | 14 kts | 161° |
| 2026-05-05 22:32 | 41.25969 | 28.75096 | 333 ft | 10 kts | 161° |
| 2026-05-05 22:32 | 41.25915 | 28.75104 | 332 ft | 7 kts | 226° |
| 2026-05-05 22:32 | 41.25894 | 28.75049 | 333 ft | 4 kts | 250° |
| 2026-05-05 22:32 | 41.25890 | 28.75033 | 333 ft | 0 kts | 250° |